createdAt,value
2018-07-13T00:03:05.605Z,14.90
2018-07-13T00:05:35.686Z,14.90
2018-07-13T00:08:04.213Z,14.90
2018-07-13T00:10:32.815Z,14.80
2018-07-13T00:13:02.354Z,14.80
2018-07-13T00:15:30.906Z,14.80
2018-07-13T00:17:59.436Z,14.80
2018-07-13T00:20:40.600Z,14.70
2018-07-13T00:23:09.163Z,14.70
2018-07-13T00:25:37.685Z,14.70
2018-07-13T00:28:06.286Z,14.70
2018-07-13T00:30:34.910Z,14.70
2018-07-13T00:33:03.471Z,14.60
2018-07-13T00:35:33.663Z,14.60
2018-07-13T00:38:02.237Z,14.70
2018-07-13T00:40:30.796Z,14.70
2018-07-13T00:45:27.554Z,14.60
2018-07-13T00:47:56.104Z,14.60
2018-07-13T00:50:24.769Z,14.50
2018-07-13T00:52:53.770Z,14.50
2018-07-13T00:55:22.343Z,14.40
2018-07-13T00:57:50.874Z,14.40
2018-07-13T01:00:30.538Z,14.50
2018-07-13T01:02:59.476Z,14.50
2018-07-13T01:05:28.106Z,14.30
2018-07-13T01:07:57.238Z,14.30
2018-07-13T01:10:39.271Z,14.30
2018-07-13T01:13:07.826Z,14.30
2018-07-13T01:15:36.486Z,14.20
2018-07-13T01:18:05.165Z,14.20
2018-07-13T01:20:33.749Z,14.10
2018-07-13T01:23:02.318Z,14.10
2018-07-13T01:25:30.847Z,14.10
2018-07-13T01:27:59.369Z,14.00
2018-07-13T01:30:27.966Z,13.90
2018-07-13T01:32:56.525Z,13.90
2018-07-13T01:35:25.231Z,13.90
2018-07-13T01:37:53.766Z,14.00
2018-07-13T01:40:23.591Z,14.00
2018-07-13T01:42:52.117Z,14.00
2018-07-13T01:45:20.648Z,14.00
2018-07-13T01:47:49.162Z,14.10
2018-07-13T01:50:17.795Z,14.00
2018-07-13T01:52:46.345Z,14.10
2018-07-13T01:55:15.455Z,14.10
2018-07-13T01:57:44.007Z,14.20
2018-07-13T02:00:12.546Z,14.20
2018-07-13T02:02:41.131Z,14.20
2018-07-13T02:05:09.690Z,14.20
2018-07-13T02:07:38.225Z,14.10
2018-07-13T02:10:06.737Z,13.90
2018-07-13T02:12:35.295Z,14.00
2018-07-13T02:15:03.912Z,14.00
2018-07-13T02:17:32.482Z,14.00
2018-07-13T02:20:01.024Z,14.00
2018-07-13T02:22:29.577Z,14.00
2018-07-13T02:24:58.133Z,13.90
2018-07-13T02:27:26.702Z,13.90
2018-07-13T02:29:55.455Z,13.90
2018-07-13T02:32:24.021Z,13.90
2018-07-13T02:34:52.574Z,13.80
2018-07-13T02:37:22.015Z,13.70
2018-07-13T02:39:50.630Z,13.70
2018-07-13T02:42:19.162Z,13.60
2018-07-13T02:44:47.750Z,13.50
2018-07-13T02:47:16.266Z,13.60
2018-07-13T02:49:44.994Z,13.60
2018-07-13T02:52:13.591Z,13.60
2018-07-13T02:54:43.075Z,13.60
2018-07-13T02:57:11.667Z,13.50
2018-07-13T02:59:40.223Z,13.60
2018-07-13T03:02:08.783Z,13.50
2018-07-13T03:04:37.319Z,13.50
2018-07-13T03:09:34.055Z,13.50
2018-07-13T03:12:02.607Z,13.50
2018-07-13T03:14:31.162Z,13.40
2018-07-13T03:16:59.679Z,13.40
2018-07-13T03:19:28.300Z,13.40
2018-07-13T03:21:56.866Z,13.40
2018-07-13T03:24:25.422Z,13.40
2018-07-13T03:26:53.996Z,13.40
2018-07-13T03:29:22.539Z,13.50
2018-07-13T03:31:51.072Z,13.50
2018-07-13T03:34:19.600Z,13.50
2018-07-13T03:36:48.127Z,13.60
2018-07-13T03:39:16.997Z,13.60
2018-07-13T03:41:45.553Z,13.60
2018-07-13T03:44:14.131Z,13.60
2018-07-13T03:46:42.641Z,13.60
2018-07-13T03:49:11.305Z,13.60
2018-07-13T03:51:39.837Z,13.60
2018-07-13T03:54:08.345Z,13.70
2018-07-13T03:56:37.153Z,13.60
2018-07-13T03:59:05.793Z,13.60
2018-07-13T04:01:34.455Z,13.70
2018-07-13T04:04:03.269Z,13.70
2018-07-13T04:06:31.862Z,13.60
2018-07-13T04:09:00.321Z,13.60
2018-07-13T04:11:28.881Z,13.50
2018-07-13T04:13:57.516Z,13.40
2018-07-13T04:16:26.052Z,13.50
2018-07-13T04:18:55.590Z,13.50
2018-07-13T04:21:25.781Z,13.50
2018-07-13T04:23:54.375Z,13.50
2018-07-13T04:26:23.049Z,13.60
2018-07-13T04:28:52.401Z,13.70
2018-07-13T04:31:21.038Z,13.90
2018-07-13T04:33:49.624Z,14.00
2018-07-13T04:36:18.219Z,14.20
2018-07-13T04:38:47.757Z,14.40
2018-07-13T04:41:16.339Z,14.50
2018-07-13T04:46:19.765Z,15.50
2018-07-13T04:48:48.390Z,15.90
2018-07-13T04:51:17.044Z,16.40
2018-07-13T04:53:45.861Z,16.10
2018-07-13T04:56:14.522Z,16.10
2018-07-13T04:58:43.148Z,16.50
2018-07-13T05:01:12.406Z,17.00
2018-07-13T05:03:41.079Z,17.50
2018-07-13T05:06:09.925Z,18.00
2018-07-13T05:08:38.542Z,18.40
2018-07-13T05:11:08.282Z,19.00
2018-07-13T05:13:36.931Z,19.30
2018-07-13T05:16:05.692Z,19.80
2018-07-13T05:18:36.302Z,20.30
2018-07-13T05:21:04.902Z,20.60
2018-07-13T05:23:33.779Z,20.80
2018-07-13T05:26:02.404Z,21.10
2018-07-13T05:28:31.057Z,21.00
2018-07-13T05:30:59.732Z,21.10
2018-07-13T05:33:28.309Z,21.40
2018-07-13T05:35:56.925Z,21.80
2018-07-13T05:38:25.611Z,22.30
2018-07-13T05:40:54.181Z,22.60
2018-07-13T05:43:22.776Z,22.70
2018-07-13T05:45:51.409Z,23.00
2018-07-13T05:48:20.038Z,23.10
2018-07-13T05:50:48.644Z,22.60
2018-07-13T05:53:17.277Z,22.30
2018-07-13T05:55:45.962Z,22.80
2018-07-13T05:58:14.559Z,23.00
2018-07-13T06:00:43.197Z,23.20
2018-07-13T06:03:11.793Z,23.60
2018-07-13T06:05:40.431Z,23.80
2018-07-13T06:08:09.084Z,24.20
2018-07-13T06:10:37.718Z,24.60
2018-07-13T06:13:06.330Z,24.40
2018-07-13T06:15:34.911Z,24.50
2018-07-13T06:18:03.421Z,24.20
2018-07-13T06:20:32.037Z,24.10
2018-07-13T06:23:00.562Z,24.20
2018-07-13T06:25:29.170Z,24.40
2018-07-13T06:27:57.742Z,24.70
2018-07-13T06:30:26.369Z,25.10
2018-07-13T06:32:56.349Z,25.40
2018-07-13T06:35:28.845Z,26.00
2018-07-13T06:37:58.750Z,26.50
2018-07-13T06:42:55.609Z,27.00
2018-07-13T06:45:24.245Z,26.80
2018-07-13T06:47:52.847Z,26.10
2018-07-13T06:50:21.453Z,26.30
2018-07-13T06:52:50.070Z,26.30
2018-07-13T06:55:19.090Z,26.60
2018-07-13T06:57:59.156Z,27.00
2018-07-13T07:01:12.568Z,27.20
2018-07-13T07:04:49.331Z,26.70
2018-07-13T07:07:19.523Z,26.80
2018-07-13T07:09:52.109Z,28.00
2018-07-13T07:12:58.846Z,28.60
2018-07-13T07:15:27.407Z,28.80
2018-07-13T07:17:56.007Z,28.70
2018-07-13T07:20:24.695Z,29.30
2018-07-13T07:22:53.330Z,29.50
2018-07-13T07:25:22.258Z,29.80
2018-07-13T07:27:50.794Z,30.40
2018-07-13T07:30:19.383Z,30.70
2018-07-13T07:32:48.390Z,31.30
2018-07-13T07:35:16.931Z,32.00
2018-07-13T07:37:45.518Z,32.40
2018-07-13T07:40:14.128Z,32.70
2018-07-13T07:42:42.724Z,33.20
2018-07-13T07:45:11.301Z,33.00
2018-07-13T07:47:39.919Z,33.00
2018-07-13T07:50:08.641Z,33.30
2018-07-13T07:52:37.193Z,33.00
2018-07-13T07:55:05.806Z,33.00
2018-07-13T07:57:34.416Z,32.90
2018-07-13T08:00:03.024Z,33.00
2018-07-13T08:02:32.069Z,33.10
2018-07-13T08:05:00.589Z,33.10
2018-07-13T08:07:29.254Z,32.80
2018-07-13T08:09:57.793Z,33.20
2018-07-13T08:12:26.398Z,33.50
2018-07-13T08:14:55.256Z,33.70
2018-07-13T08:17:24.087Z,34.20
2018-07-13T08:19:52.839Z,34.10
2018-07-13T08:22:26.127Z,34.30
2018-07-13T08:24:56.046Z,34.00
2018-07-13T08:27:34.073Z,32.90
2018-07-13T08:30:03.535Z,32.90
2018-07-13T08:32:32.190Z,32.90
2018-07-13T08:35:00.825Z,32.90
2018-07-13T08:37:29.515Z,32.70
2018-07-13T08:39:58.060Z,33.00
2018-07-13T08:42:26.684Z,32.80
2018-07-13T08:44:55.287Z,33.40
2018-07-13T08:47:23.915Z,33.70
2018-07-13T08:49:52.533Z,34.20
2018-07-13T08:52:21.446Z,34.20
2018-07-13T08:54:50.133Z,33.40
2018-07-13T08:57:18.893Z,33.70
2018-07-13T08:59:48.015Z,33.20
2018-07-13T09:02:16.581Z,32.60
2018-07-13T09:04:45.248Z,31.80
2018-07-13T09:07:13.948Z,31.00
2018-07-13T09:09:42.548Z,30.60
2018-07-13T09:12:11.237Z,30.30
2018-07-13T09:14:39.834Z,29.90
2018-07-13T09:17:08.446Z,29.50
2018-07-13T09:19:37.281Z,29.50
2018-07-13T09:22:06.164Z,29.50
2018-07-13T09:24:34.855Z,29.40
2018-07-13T09:27:03.820Z,29.40
2018-07-13T09:29:32.434Z,29.40
2018-07-13T09:32:02.012Z,29.20
2018-07-13T09:34:30.659Z,28.90
2018-07-13T09:36:59.303Z,29.00
2018-07-13T09:39:27.900Z,29.10
2018-07-13T09:41:56.521Z,29.40
2018-07-13T09:44:25.065Z,29.30
2018-07-13T09:46:53.792Z,28.80
2018-07-13T09:49:22.329Z,28.70
2018-07-13T09:51:50.995Z,28.70
2018-07-13T09:54:20.189Z,29.00
2018-07-13T09:56:49.742Z,29.30
2018-07-13T09:59:18.250Z,29.50
2018-07-13T10:01:46.951Z,29.80
2018-07-13T10:04:15.580Z,29.80
2018-07-13T10:06:44.211Z,29.80
2018-07-13T10:09:13.528Z,29.80
2018-07-13T10:11:42.092Z,29.80
2018-07-13T10:14:10.843Z,29.50
2018-07-13T10:16:39.447Z,29.30
2018-07-13T10:19:08.062Z,29.40
2018-07-13T10:21:38.594Z,29.40
2018-07-13T10:24:07.671Z,29.30
2018-07-13T10:26:38.678Z,29.30
2018-07-13T10:29:11.377Z,29.20
2018-07-13T10:31:40.019Z,29.30
2018-07-13T10:34:09.752Z,29.80
2018-07-13T10:36:49.443Z,30.10
2018-07-13T10:39:18.777Z,30.40
2018-07-13T10:41:48.071Z,30.50
2018-07-13T10:44:17.245Z,30.60
2018-07-13T10:46:45.881Z,30.50
2018-07-13T10:49:14.527Z,30.40
2018-07-13T10:51:43.707Z,30.60
2018-07-13T10:54:12.457Z,30.30
2018-07-13T10:56:41.051Z,30.10
2018-07-13T10:59:11.522Z,30.30
2018-07-13T11:01:40.461Z,30.20
2018-07-13T11:04:09.992Z,30.40
2018-07-13T11:06:39.378Z,30.80
2018-07-13T11:09:09.136Z,31.20
2018-07-13T11:11:37.903Z,31.30
2018-07-13T11:14:07.160Z,30.50
2018-07-13T11:16:35.688Z,30.80
2018-07-13T11:19:04.859Z,30.90
2018-07-13T11:21:33.661Z,30.90
2018-07-13T11:24:02.313Z,31.20
2018-07-13T11:26:31.882Z,31.20
2018-07-13T11:29:00.545Z,30.90
2018-07-13T11:31:29.149Z,30.90
2018-07-13T11:33:58.195Z,30.80
2018-07-13T11:36:26.874Z,30.80
2018-07-13T11:38:56.410Z,30.90
2018-07-13T11:41:25.014Z,30.60
2018-07-13T11:43:53.641Z,30.10
2018-07-13T11:46:22.477Z,29.80
2018-07-13T11:48:51.621Z,29.70
2018-07-13T11:51:20.283Z,29.70
2018-07-13T11:53:49.592Z,29.70
2018-07-13T11:56:19.390Z,29.30
2018-07-13T11:58:48.047Z,29.20
2018-07-13T12:01:16.733Z,29.40
2018-07-13T12:03:45.367Z,29.60
2018-07-13T12:06:16.651Z,29.60
2018-07-13T12:08:45.205Z,29.60
2018-07-13T12:11:14.835Z,29.90
2018-07-13T12:13:56.631Z,30.20
2018-07-13T12:16:28.064Z,29.90
2018-07-13T12:18:57.158Z,29.80
2018-07-13T12:21:25.773Z,29.60
2018-07-13T12:23:55.033Z,30.10
2018-07-13T12:26:24.170Z,30.60
2018-07-13T12:28:52.725Z,30.80
2018-07-13T12:31:21.978Z,30.90
2018-07-13T12:33:51.496Z,30.60
2018-07-13T12:36:24.304Z,30.50
2018-07-13T12:38:53.690Z,30.30
2018-07-13T12:41:22.799Z,30.20
2018-07-13T12:43:51.313Z,30.20
2018-07-13T12:46:19.886Z,30.50
2018-07-13T12:48:49.369Z,29.50
2018-07-13T12:51:17.963Z,29.50
2018-07-13T12:53:46.937Z,29.40
2018-07-13T12:56:15.434Z,29.40
2018-07-13T12:58:43.942Z,29.50
2018-07-13T13:01:12.563Z,29.90
2018-07-13T13:03:41.184Z,30.00
2018-07-13T13:06:09.717Z,29.90
2018-07-13T13:08:38.410Z,29.70
2018-07-13T13:13:36.626Z,30.10
2018-07-13T13:16:05.262Z,30.40
2018-07-13T13:18:34.731Z,30.50
2018-07-13T13:21:05.677Z,30.50
2018-07-13T13:23:34.242Z,30.40
2018-07-13T13:26:03.502Z,30.10
2018-07-13T13:28:32.014Z,30.00
2018-07-13T13:31:01.576Z,29.90
2018-07-13T13:33:30.950Z,29.70
2018-07-13T13:35:59.528Z,29.80
2018-07-13T13:38:28.099Z,29.90
2018-07-13T13:40:58.129Z,30.00
2018-07-13T13:43:26.707Z,30.10
2018-07-13T13:45:58.802Z,30.20
2018-07-13T13:48:27.371Z,30.30
2018-07-13T13:50:56.314Z,30.40
2018-07-13T13:53:26.438Z,30.60
2018-07-13T13:55:54.956Z,30.60
2018-07-13T13:58:23.522Z,30.70
2018-07-13T14:00:52.153Z,30.60
2018-07-13T14:03:20.974Z,30.50
2018-07-13T14:05:49.538Z,30.50
2018-07-13T14:08:18.584Z,30.60
2018-07-13T14:10:47.203Z,30.70
2018-07-13T14:13:16.712Z,30.90
2018-07-13T14:15:45.849Z,31.00
2018-07-13T14:18:15.311Z,31.00
2018-07-13T14:20:43.930Z,31.10
2018-07-13T14:23:12.502Z,30.70
2018-07-13T14:25:41.741Z,30.60
2018-07-13T14:28:10.336Z,30.60
2018-07-13T14:30:39.168Z,30.40
2018-07-13T14:33:07.798Z,30.40
2018-07-13T14:35:36.402Z,30.20
2018-07-13T14:38:04.982Z,30.00
2018-07-13T14:40:34.748Z,30.00
2018-07-13T14:43:04.757Z,30.00
2018-07-13T14:45:33.335Z,29.80
2018-07-13T14:48:01.941Z,29.80
2018-07-13T14:50:30.960Z,30.00
2018-07-13T14:53:00.071Z,30.00
2018-07-13T14:55:28.598Z,30.00
2018-07-13T14:57:57.447Z,29.70
2018-07-13T15:00:25.981Z,29.70
2018-07-13T15:02:55.576Z,29.70
2018-07-13T15:05:24.490Z,29.80
2018-07-13T15:07:54.334Z,29.90
2018-07-13T15:10:23.356Z,29.90
2018-07-13T15:12:52.934Z,29.80
2018-07-13T15:15:21.482Z,29.80
2018-07-13T15:17:50.087Z,29.60
2018-07-13T15:20:19.547Z,29.60
2018-07-13T15:22:49.200Z,29.60
2018-07-13T15:25:17.746Z,29.60
2018-07-13T15:27:46.311Z,29.50
2018-07-13T15:30:16.358Z,29.40
2018-07-13T15:32:45.434Z,29.30
2018-07-13T15:35:14.010Z,29.30
2018-07-13T15:37:43.408Z,29.20
2018-07-13T15:40:12.585Z,29.30
2018-07-13T15:42:42.207Z,29.30
2018-07-13T15:45:13.007Z,29.30
2018-07-13T15:48:24.600Z,29.40
2018-07-13T15:50:56.568Z,29.20
2018-07-13T15:53:26.730Z,29.10
2018-07-13T15:55:57.613Z,29.10
2018-07-13T15:58:26.756Z,29.20
2018-07-13T16:00:56.190Z,29.20
2018-07-13T16:03:24.869Z,29.10
2018-07-13T16:08:25.174Z,29.10
2018-07-13T16:10:55.227Z,29.10
2018-07-13T16:15:52.835Z,29.30
2018-07-13T16:18:22.034Z,29.30
2018-07-13T16:20:50.585Z,29.20
2018-07-13T16:23:19.114Z,29.10
2018-07-13T16:25:47.601Z,29.10
2018-07-13T16:28:16.167Z,29.10
2018-07-13T16:30:45.657Z,28.80
2018-07-13T16:33:14.266Z,28.80
2018-07-13T16:35:43.275Z,28.90
2018-07-13T16:38:13.130Z,28.90
2018-07-13T16:40:41.772Z,28.90
2018-07-13T16:43:11.023Z,28.90
2018-07-13T16:45:40.197Z,28.90
2018-07-13T16:48:09.286Z,28.80
2018-07-13T16:50:37.897Z,28.80
2018-07-13T16:53:06.426Z,28.70
2018-07-13T16:55:35.359Z,28.70
2018-07-13T16:58:03.967Z,28.60
2018-07-13T17:00:36.518Z,28.70
2018-07-13T17:03:06.553Z,28.70
2018-07-13T17:05:40.121Z,28.60
2018-07-13T17:08:09.205Z,28.70
2018-07-13T17:10:38.693Z,28.60
2018-07-13T17:13:07.647Z,28.50
2018-07-13T17:15:36.202Z,28.50
2018-07-13T17:18:05.426Z,28.40
2018-07-13T17:23:03.244Z,28.50
2018-07-13T17:25:33.134Z,28.40
2018-07-13T17:28:01.734Z,28.40
2018-07-13T17:30:30.987Z,28.30
2018-07-13T17:32:59.627Z,28.20
2018-07-13T17:35:29.135Z,28.10
2018-07-13T17:37:57.707Z,28.00
2018-07-13T17:40:26.262Z,28.00
2018-07-13T17:42:55.230Z,27.90
2018-07-13T17:45:54.376Z,27.80
2018-07-13T17:48:22.942Z,27.70
2018-07-13T17:50:51.481Z,27.60
2018-07-13T17:53:20.082Z,27.50
2018-07-13T17:55:49.306Z,27.40
2018-07-13T17:58:17.876Z,27.40
2018-07-13T18:00:46.466Z,27.30
2018-07-13T18:03:15.014Z,27.20
2018-07-13T18:05:43.534Z,27.20
2018-07-13T18:08:12.143Z,27.10
2018-07-13T18:10:40.666Z,26.90
2018-07-13T18:13:09.294Z,26.90
2018-07-13T18:15:39.514Z,26.90
2018-07-13T18:18:09.079Z,26.80
2018-07-13T18:20:39.383Z,26.70
2018-07-13T18:23:08.305Z,26.50
2018-07-13T18:25:38.128Z,26.30
2018-07-13T18:28:12.322Z,26.10
2018-07-13T18:30:41.632Z,25.80
2018-07-13T18:33:12.281Z,25.70
2018-07-13T18:35:41.633Z,25.60
2018-07-13T18:38:10.876Z,25.50
2018-07-13T18:40:39.516Z,25.30
2018-07-13T18:43:08.463Z,25.10
2018-07-13T18:48:06.508Z,24.90
2018-07-13T18:50:35.800Z,24.70
2018-07-13T18:53:04.656Z,24.50
2018-07-13T18:55:33.279Z,24.40
2018-07-13T18:58:02.139Z,24.20
2018-07-13T19:00:31.625Z,24.10
2018-07-13T19:03:00.802Z,24.10
2018-07-13T19:05:29.886Z,23.90
2018-07-13T19:07:58.877Z,23.90
2018-07-13T19:10:28.431Z,23.70
2018-07-13T19:12:57.003Z,23.60
2018-07-13T19:15:25.734Z,23.50
2018-07-13T19:17:54.360Z,23.40
2018-07-13T19:20:23.528Z,23.30
2018-07-13T19:22:58.467Z,23.20
2018-07-13T19:25:27.456Z,23.10
2018-07-13T19:27:56.058Z,23.00
2018-07-13T19:30:25.058Z,22.90
2018-07-13T19:32:54.086Z,22.90
2018-07-13T19:35:22.608Z,22.80
2018-07-13T19:37:51.152Z,22.60
2018-07-13T19:40:19.727Z,22.50
2018-07-13T19:42:49.594Z,22.30
2018-07-13T19:45:18.145Z,22.30
2018-07-13T19:47:46.770Z,22.20
2018-07-13T19:50:15.687Z,22.00
2018-07-13T19:52:44.607Z,21.90
2018-07-13T19:55:13.174Z,21.80
2018-07-13T19:57:42.560Z,21.70
2018-07-13T20:00:12.612Z,21.70
2018-07-13T20:02:42.073Z,21.60
2018-07-13T20:05:11.536Z,21.60
2018-07-13T20:07:40.079Z,21.60
2018-07-13T20:10:09.892Z,21.50
2018-07-13T20:12:38.486Z,21.40
2018-07-13T20:15:07.126Z,21.40
2018-07-13T20:17:35.683Z,21.30
2018-07-13T20:20:04.337Z,21.20
2018-07-13T20:22:32.927Z,21.20
2018-07-13T20:25:01.477Z,21.20
2018-07-13T20:27:30.738Z,21.20
2018-07-13T20:29:59.306Z,21.20
2018-07-13T20:32:27.802Z,21.30
2018-07-13T20:34:56.326Z,21.20
2018-07-13T20:37:31.480Z,21.20
2018-07-13T20:40:00.076Z,21.20
2018-07-13T20:42:29.558Z,21.10
2018-07-13T20:44:58.092Z,20.90
2018-07-13T20:47:26.705Z,20.80
2018-07-13T20:49:55.803Z,20.70
2018-07-13T20:52:24.418Z,20.70
2018-07-13T20:54:53.997Z,20.70
2018-07-13T20:57:22.604Z,20.60
2018-07-13T20:59:51.483Z,20.50
2018-07-13T21:02:20.076Z,20.30
2018-07-13T21:04:48.662Z,20.30
2018-07-13T21:07:17.191Z,20.30
2018-07-13T21:09:46.352Z,20.30
2018-07-13T21:12:14.935Z,20.30
2018-07-13T21:14:43.469Z,20.30
2018-07-13T21:17:21.296Z,20.20
2018-07-13T21:19:51.359Z,20.20
2018-07-13T21:22:21.755Z,20.20
2018-07-13T21:24:50.416Z,20.10
2018-07-13T21:27:19.407Z,20.10
2018-07-13T21:29:48.002Z,20.00
2018-07-13T21:32:17.284Z,19.90
2018-07-13T21:34:45.906Z,19.90
2018-07-13T21:37:14.759Z,19.90
2018-07-13T21:39:43.249Z,19.80
2018-07-13T21:42:11.887Z,19.70
2018-07-13T21:44:40.464Z,19.60
2018-07-13T21:47:09.047Z,19.60
2018-07-13T21:49:37.658Z,19.60
2018-07-13T21:52:06.254Z,19.60
2018-07-13T21:54:35.117Z,19.50
2018-07-13T21:57:03.680Z,19.50
2018-07-13T21:59:32.217Z,19.40
2018-07-13T22:02:00.818Z,19.30
2018-07-13T22:04:29.346Z,19.20
2018-07-13T22:06:57.879Z,19.20
2018-07-13T22:09:26.476Z,19.10
2018-07-13T22:11:55.022Z,19.10
2018-07-13T22:14:23.579Z,19.10
2018-07-13T22:16:52.147Z,19.10
2018-07-13T22:19:20.700Z,19.10
2018-07-13T22:21:49.300Z,19.10
2018-07-13T22:24:17.821Z,19.10
2018-07-13T22:26:46.384Z,19.10
2018-07-13T22:29:15.051Z,19.00
2018-07-13T22:31:43.619Z,19.10
2018-07-13T22:34:12.163Z,19.00
2018-07-13T22:36:40.721Z,18.90
2018-07-13T22:39:09.294Z,18.90
2018-07-13T22:41:37.868Z,18.90
2018-07-13T22:44:06.430Z,18.90
2018-07-13T22:46:34.934Z,18.80
2018-07-13T22:49:03.465Z,18.70
2018-07-13T22:51:31.966Z,18.70
2018-07-13T22:54:00.538Z,18.60
2018-07-13T22:56:29.093Z,18.60
2018-07-13T22:58:57.665Z,18.60
2018-07-13T23:01:26.264Z,18.60
2018-07-13T23:03:54.772Z,18.50
2018-07-13T23:06:23.292Z,18.50
2018-07-13T23:08:51.833Z,18.20
2018-07-13T23:11:20.357Z,18.10
2018-07-13T23:13:48.905Z,18.10
2018-07-13T23:16:17.483Z,18.10
2018-07-13T23:18:46.326Z,18.10
2018-07-13T23:21:14.899Z,18.10
2018-07-13T23:23:43.474Z,18.10
2018-07-13T23:26:12.008Z,18.10
2018-07-13T23:28:40.579Z,18.10
2018-07-13T23:31:09.130Z,18.10
2018-07-13T23:33:37.709Z,18.10
2018-07-13T23:36:06.350Z,18.00
2018-07-13T23:38:34.916Z,17.90
2018-07-13T23:41:03.473Z,18.00
2018-07-13T23:43:32.052Z,18.00
2018-07-13T23:46:00.597Z,18.00
2018-07-13T23:48:29.292Z,17.90
2018-07-13T23:50:57.846Z,17.90
2018-07-13T23:53:26.394Z,17.90
2018-07-13T23:55:54.958Z,17.80
